Time;durP1;ratioP1;P1;durP2;ratioP2;P2;SDS_P1;SDS_P2;PMS_P1;PMS_P2;Temp;Humidity;BMP_temperature;BMP_pressure;BME280_temperature;BME280_humidity;BME280_pressure;Samples;Min_cycle;Max_cycle;Signal;HPM_P1;HPM_P2
2021/10/23 00:00:31;;;;;;;14.93;11.05;;;;;;;8.29;79.27;96747.69;5095456;28;20035;-62
2021/10/23 00:02:56;;;;;;;12.65;10.30;;;;;;;8.29;79.20;96746.84;5095541;28;20024;-61
2021/10/23 00:05:22;;;;;;;21.55;11.98;;;;;;;8.30;78.86;96745.94;5095166;28;20062;-63
2021/10/23 00:07:49;;;;;;;12.77;10.90;;;;;;;8.25;79.43;96751.25;5095463;28;20063;-62
2021/10/23 00:10:14;;;;;;;16.35;11.05;;;;;;;8.28;79.37;96750.34;5095278;28;20447;-63
2021/10/23 00:12:40;;;;;;;12.30;9.63;;;;;;;8.29;79.08;96752.03;5095179;28;20039;-62
2021/10/23 00:15:06;;;;;;;12.98;10.02;;;;;;;8.29;79.00;96741.63;5095250;28;20064;-64
2021/10/23 00:17:32;;;;;;;14.77;11.02;;;;;;;8.22;79.10;96743.53;5095102;28;20020;-62
2021/10/23 00:20:01;;;;;;;12.95;11.07;;;;;;;8.24;79.65;96744.34;5095110;28;20482;-62
2021/10/23 00:22:28;;;;;;;13.60;10.77;;;;;;;8.21;79.73;96734.84;5095028;28;20096;-64
2021/10/23 00:24:53;;;;;;;16.08;10.50;;;;;;;8.22;79.32;96743.53;5094923;28;20363;-63
2021/10/23 00:27:19;;;;;;;13.23;10.25;;;;;;;8.25;79.05;96738.22;5095023;28;20028;-62
2021/10/23 00:29:45;;;;;;;12.40;9.30;;;;;;;8.26;78.08;96732.13;5094896;28;20481;-64
2021/10/23 00:32:10;;;;;;;12.02;9.88;;;;;;;8.18;78.82;96729.72;5095001;28;20043;-63
2021/10/23 00:34:36;;;;;;;17.25;11.80;;;;;;;8.20;79.71;96740.09;5094834;28;20165;-59
2021/10/23 00:37:02;;;;;;;14.32;10.57;;;;;;;8.18;79.90;96737.53;5094662;28;20028;-64
2021/10/23 00:39:28;;;;;;;15.02;11.30;;;;;;;8.12;80.20;96732.47;5094647;28;20051;-62
2021/10/23 00:41:53;;;;;;;17.25;11.15;;;;;;;8.05;81.29;96737.00;5094771;28;20103;-63
2021/10/23 00:44:35;;;;;;;14.18;11.05;;;;;;;8.02;81.49;96731.84;5094643;28;20538;-63
2021/10/23 00:47:04;;;;;;;13.35;10.55;;;;;;;8.04;80.92;96734.44;5094580;28;20428;-64
2021/10/23 00:49:30;;;;;;;14.10;11.07;;;;;;;8.02;80.77;96742.28;5094406;28;20023;-61
2021/10/23 00:51:57;;;;;;;14.38;11.50;;;;;;;8.05;80.84;96736.13;5094466;28;20028;-64
2021/10/23 00:54:25;;;;;;;12.50;10.52;;;;;;;8.01;80.70;96729.28;5094571;28;20032;-62
2021/10/23 00:56:51;;;;;;;14.80;11.35;;;;;;;8.05;80.77;96728.31;5094422;28;20035;-63
2021/10/23 00:59:17;;;;;;;12.02;10.30;;;;;;;8.08;80.56;96728.25;5094433;28;20020;-61
2021/10/23 01:01:42;;;;;;;12.52;10.63;;;;;;;8.09;80.75;96728.19;5094395;28;20492;-63
2021/10/23 01:04:08;;;;;;;11.68;10.40;;;;;;;8.12;80.36;96721.22;5094016;28;20027;-62
2021/10/23 01:06:34;;;;;;;14.18;11.43;;;;;;;8.10;80.23;96723.84;5093977;28;20036;-63
2021/10/23 01:09:00;;;;;;;14.95;11.55;;;;;;;8.04;80.95;96719.63;5093852;28;20028;-64
2021/10/23 01:11:27;;;;;;;12.52;10.77;;;;;;;8.02;81.25;96717.97;5093825;28;20371;-62
2021/10/23 01:13:52;;;;;;;14.57;12.13;;;;;;;8.05;82.25;96716.16;5093936;28;20032;-64
2021/10/23 01:16:18;;;;;;;13.32;10.75;;;;;;;8.05;81.57;96716.16;5094013;28;20020;-62
2021/10/23 01:18:44;;;;;;;13.02;11.20;;;;;;;8.01;81.43;96719.69;5094113;28;20020;-61
2021/10/23 01:21:11;;;;;;;12.38;10.27;;;;;;;8.04;81.04;96709.22;5093886;28;20066;-63
2021/10/23 01:23:36;;;;;;;12.32;10.48;;;;;;;8.04;80.67;96704.00;5093897;28;20417;-61
2021/10/23 01:26:03;;;;;;;15.18;10.85;;;;;;;8.08;80.32;96707.41;5093772;28;20028;-63
2021/10/23 01:28:29;;;;;;;29.10;26.00;;;;;;;8.09;80.42;96698.69;5093768;28;20107;-63
2021/10/23 01:30:55;;;;;;;23.67;18.85;;;;;;;8.07;80.27;96696.09;5093836;28;20462;-62
2021/10/23 01:33:21;;;;;;;16.52;13.35;;;;;;;8.06;80.51;96698.75;5093693;28;20063;-62
2021/10/23 01:35:47;;;;;;;14.32;12.77;;;;;;;8.08;80.41;96699.56;5093674;28;20055;-61
2021/10/23 01:38:12;;;;;;;14.57;11.00;;;;;;;8.03;80.85;96701.44;5093664;28;20020;-61
2021/10/23 01:40:38;;;;;;;18.50;12.93;;;;;;;7.99;81.11;96705.88;5093669;28;20028;-62
2021/10/23 01:43:04;;;;;;;15.63;11.80;;;;;;;7.99;81.48;96711.09;5093639;28;20149;-63
2021/10/23 01:45:31;;;;;;;15.88;12.85;;;;;;;8.01;81.18;96716.25;5093421;28;20470;-63
2021/10/23 01:47:57;;;;;;;18.33;12.75;;;;;;;8.00;81.04;96714.56;5093425;28;20028;-63
2021/10/23 01:50:24;;;;;;;19.73;12.25;;;;;;;8.06;80.76;96707.44;5093510;28;20031;-61
2021/10/23 01:52:51;;;;;;;16.88;12.73;;;;;;;7.99;81.06;96708.50;5093427;28;20020;-63
2021/10/23 01:55:17;;;;;;;16.30;11.02;;;;;;;7.99;80.39;96705.88;5093538;28;20424;-61
2021/10/23 01:57:44;;;;;;;13.85;10.88;;;;;;;7.90;81.01;96714.78;5075218;28;20024;-63
2021/10/23 02:00:13;;;;;;;14.50;11.48;;;;;;;7.81;81.68;96718.47;5093320;28;20032;-63
2021/10/23 02:02:39;;;;;;;14.32;11.32;;;;;;;7.88;81.66;96715.69;5093382;28;20051;-63
2021/10/23 02:05:05;;;;;;;16.33;10.77;;;;;;;7.90;81.35;96709.56;5093023;28;20097;-61
2021/10/23 02:07:31;;;;;;;13.45;11.07;;;;;;;7.84;81.73;96718.41;5093190;28;20030;-61
2021/10/23 02:09:57;;;;;;;14.82;11.48;;;;;;;7.88;83.22;96713.09;5093218;28;20016;-60
2021/10/23 02:12:23;;;;;;;15.07;11.38;;;;;;;7.90;82.34;96711.31;5093162;28;20038;-60
2021/10/23 02:14:48;;;;;;;14.02;11.60;;;;;;;7.82;82.31;96712.34;5093345;28;20052;-62
2021/10/23 02:17:14;;;;;;;14.95;11.30;;;;;;;7.80;82.31;96716.75;5093141;28;20419;-62
2021/10/23 02:19:39;;;;;;;14.40;10.70;;;;;;;7.88;82.19;96719.16;5093178;28;20454;-63
2021/10/23 02:22:05;;;;;;;14.73;10.70;;;;;;;7.92;81.47;96715.59;5092462;28;20024;-63
2021/10/23 02:24:31;;;;;;;14.43;10.70;;;;;;;7.93;81.23;96719.91;5092984;28;20025;-63
2021/10/23 02:26:57;;;;;;;11.32;9.77;;;;;;;7.96;80.65;96726.78;5092900;28;20470;-61
2021/10/23 02:29:22;;;;;;;11.07;9.65;;;;;;;7.97;80.24;96728.50;5093072;28;20020;-64
2021/10/23 02:31:48;;;;;;;13.32;10.13;;;;;;;7.97;80.82;96726.75;5093029;28;20043;-63
2021/10/23 02:34:14;;;;;;;18.08;10.57;;;;;;;7.97;80.62;96737.19;5092937;28;20036;-63
2021/10/23 02:36:40;;;;;;;16.30;10.25;;;;;;;7.99;80.79;96731.94;5092758;28;20020;-63
2021/10/23 02:39:05;;;;;;;14.05;10.65;;;;;;;7.98;80.50;96738.03;5092911;28;20031;-61
2021/10/23 02:41:31;;;;;;;19.98;11.25;;;;;;;8.01;80.41;96745.75;5092878;28;20016;-63
2021/10/23 02:43:58;;;;;;;14.10;11.15;;;;;;;8.02;80.34;96742.28;5092824;28;20023;-61
2021/10/23 02:46:24;;;;;;;11.27;9.55;;;;;;;7.95;80.36;96735.50;5092718;28;20481;-64
2021/10/23 02:48:50;;;;;;;19.17;10.27;;;;;;;7.93;80.47;96735.56;5092910;28;20024;-60
2021/10/23 02:51:15;;;;;;;13.70;9.27;;;;;;;7.95;80.01;96735.50;5092905;28;20027;-61
2021/10/23 02:53:41;;;;;;;18.77;10.23;;;;;;;7.96;80.23;96735.47;5092821;28;20555;-61
2021/10/23 02:56:07;;;;;;;14.63;10.45;;;;;;;7.95;80.53;96733.75;5092778;28;20024;-61
2021/10/23 02:58:32;;;;;;;13.30;10.85;;;;;;;7.86;80.83;96730.53;5092663;28;20024;-61
2021/10/23 03:00:58;;;;;;;11.75;10.13;;;;;;;7.93;80.66;96729.47;5092646;28;20024;-61
2021/10/23 03:03:24;;;;;;;12.40;9.55;;;;;;;7.91;80.32;96719.09;5092954;28;20028;-61
2021/10/23 03:05:49;;;;;;;13.50;9.50;;;;;;;7.94;79.89;96723.34;5092455;28;20402;-62
2021/10/23 03:08:15;;;;;;;12.73;9.70;;;;;;;7.94;79.88;96729.44;5092666;28;20036;-62
2021/10/23 03:10:42;;;;;;;15.32;10.50;;;;;;;7.88;81.12;96734.78;5092700;28;20019;-61
2021/10/23 03:13:08;;;;;;;15.85;10.82;;;;;;;7.87;81.39;96734.81;5092617;28;20032;-63
2021/10/23 03:15:33;;;;;;;13.88;10.35;;;;;;;7.83;81.38;96734.06;5092705;28;20099;-63
2021/10/23 03:17:59;;;;;;;15.00;11.30;;;;;;;7.78;81.70;96725.47;5092590;28;20466;-63
2021/10/23 03:20:25;;;;;;;13.10;10.40;;;;;;;7.76;81.63;96729.88;5092607;28;20028;-62
2021/10/23 03:22:51;;;;;;;14.90;10.02;;;;;;;7.74;81.65;96726.47;5092509;28;20095;-63
2021/10/23 03:25:16;;;;;;;12.52;10.07;;;;;;;7.77;81.01;96727.22;5092447;28;20016;-61
2021/10/23 03:27:42;;;;;;;14.98;10.60;;;;;;;7.77;80.94;96726.38;5092576;28;20055;-63
2021/10/23 03:30:08;;;;;;;14.85;10.73;;;;;;;7.75;80.82;96738.56;5092372;28;20021;-60
2021/10/23 03:32:33;;;;;;;15.68;10.57;;;;;;;7.75;80.54;96738.56;5093006;28;20081;-61
2021/10/23 03:35:00;;;;;;;13.07;9.52;;;;;;;7.77;80.52;96742.84;5096129;28;20115;-61
2021/10/23 03:37:33;;;;;;;14.45;10.07;;;;;;;7.78;80.00;96741.97;5096071;28;20031;-63
2021/10/23 03:40:00;;;;;;;12.07;9.82;;;;;;;7.78;80.22;96741.13;5095940;28;20534;-64
2021/10/23 03:42:26;;;;;;;14.00;10.40;;;;;;;7.73;80.18;96750.81;5096040;28;20024;-60
2021/10/23 03:44:53;;;;;;;13.43;10.30;;;;;;;7.67;80.56;96751.78;5095872;28;20122;-64
2021/10/23 03:47:19;;;;;;;15.52;10.05;;;;;;;7.66;80.74;96750.94;5095922;28;20024;-61
2021/10/23 03:49:45;;;;;;;13.75;9.30;;;;;;;7.70;80.12;96749.09;5095951;28;20027;-63
2021/10/23 03:52:11;;;;;;;12.50;10.05;;;;;;;7.71;80.18;96746.47;5095806;28;20031;-63
2021/10/23 03:54:38;;;;;;;13.27;10.93;;;;;;;7.69;80.00;96744.78;5095579;28;20422;-60
2021/10/23 03:57:07;;;;;;;11.82;9.93;;;;;;;7.74;80.24;96742.94;5095598;28;20028;-61
2021/10/23 03:59:33;;;;;;;15.95;10.10;;;;;;;7.73;80.52;96750.81;5095601;28;20428;-63
2021/10/23 04:01:58;;;;;;;12.13;10.80;;;;;;;7.68;80.81;96748.28;5095490;28;20024;-61
2021/10/23 04:04:25;;;;;;;16.60;11.15;;;;;;;7.70;81.50;96751.69;5095139;28;20020;-64
2021/10/23 04:06:50;;;;;;;16.70;12.70;;;;;;;7.66;81.67;96745.72;5095273;28;20474;-61
2021/10/23 04:09:17;;;;;;;13.88;11.23;;;;;;;7.70;82.09;96741.28;5095361;28;20134;-61
2021/10/23 04:11:42;;;;;;;14.48;10.35;;;;;;;7.73;81.46;96745.59;5095330;28;20420;-62
2021/10/23 04:14:08;;;;;;;14.00;10.38;;;;;;;7.74;80.94;96747.28;5095320;28;20023;-62
2021/10/23 04:16:33;;;;;;;13.48;10.98;;;;;;;7.69;81.20;96742.19;5095378;28;20017;-63
2021/10/23 04:18:59;;;;;;;16.67;11.73;;;;;;;7.73;81.94;96753.41;5095233;28;20027;-61
2021/10/23 04:21:25;;;;;;;11.73;10.30;;;;;;;7.71;81.31;96754.28;5095187;28;20405;-61
2021/10/23 04:23:51;;;;;;;12.18;10.00;;;;;;;7.71;81.37;96750.84;5095123;28;20052;-61
2021/10/23 04:26:16;;;;;;;13.85;10.95;;;;;;;7.69;81.72;96748.25;5094968;28;20404;-60
2021/10/23 04:28:42;;;;;;;17.45;10.23;;;;;;;7.72;81.90;96755.13;5095043;28;20024;-60
2021/10/23 04:31:08;;;;;;;12.77;10.50;;;;;;;7.76;81.72;96748.97;5094975;28;20449;-63
2021/10/23 04:33:33;;;;;;;15.55;12.20;;;;;;;7.76;81.85;96751.56;5095133;28;20024;-61
2021/10/23 04:35:59;;;;;;;15.48;10.35;;;;;;;7.77;81.44;96745.44;5094931;28;20119;-64
2021/10/23 04:38:25;;;;;;;12.48;9.68;;;;;;;7.79;80.78;96754.09;5094943;28;20378;-61
2021/10/23 04:40:51;;;;;;;16.92;11.40;;;;;;;7.81;81.33;96760.13;5094895;28;20470;-61
2021/10/23 04:43:16;;;;;;;15.40;11.48;;;;;;;7.81;82.00;96759.28;5094216;28;20528;-61
2021/10/23 04:45:42;;;;;;;13.15;10.93;;;;;;;7.88;82.05;96759.97;5094532;28;20085;-63
2021/10/23 04:48:08;;;;;;;16.48;11.57;;;;;;;7.95;81.58;96766.78;5094599;28;20347;-63
2021/10/23 04:50:34;;;;;;;13.57;11.55;;;;;;;7.93;81.80;96768.53;5076762;28;20088;-61
2021/10/23 04:52:59;;;;;;;7.63;5.30;;;;;;;7.95;81.59;96767.63;5094575;28;20035;-62
2021/10/23 04:55:25;;;;;;;15.75;11.40;;;;;;;7.96;81.71;96765.88;5094518;28;20027;-63
2021/10/23 04:57:50;;;;;;;15.85;11.02;;;;;;;8.04;81.36;96773.50;5094426;28;20386;-62
2021/10/23 05:00:16;;;;;;;11.48;9.38;;;;;;;8.12;80.69;96781.16;5076153;28;20091;-62
2021/10/23 05:02:42;;;;;;;10.93;9.80;;;;;;;8.20;80.52;96789.63;5094394;28;20020;-62
2021/10/23 05:05:08;;;;;;;10.90;9.20;;;;;;;8.28;80.40;96787.66;5094150;28;20043;-64
2021/10/23 05:07:34;;;;;;;12.52;10.38;;;;;;;8.32;80.14;96778.91;5094297;28;20025;-63
2021/10/23 05:09:59;;;;;;;12.73;9.93;;;;;;;8.41;80.42;96784.75;5094311;28;20145;-63
2021/10/23 05:12:25;;;;;;;11.88;10.57;;;;;;;8.52;80.25;96792.31;5094167;28;20198;-64
2021/10/23 05:14:51;;;;;;;13.15;10.57;;;;;;;8.65;80.40;96785.91;5094222;28;20072;-63
2021/10/23 05:17:16;;;;;;;12.88;11.50;;;;;;;8.77;80.95;96786.47;5094222;28;20024;-61
2021/10/23 05:19:42;;;;;;;11.02;9.82;;;;;;;9.02;80.65;96798.84;5093947;28;20020;-63
2021/10/23 05:22:07;;;;;;;10.75;8.65;;;;;;;9.41;79.95;96792.53;5094046;28;20027;-64
2021/10/23 05:24:34;;;;;;;8.88;7.68;;;;;;;10.08;77.12;96799.22;5093865;28;20073;-61
2021/10/23 05:27:00;;;;;;;12.90;8.10;;;;;;;10.95;74.53;96803.34;5093950;28;20028;-64
2021/10/23 05:29:25;;;;;;;20.80;16.05;;;;;;;11.35;72.43;96803.66;5093945;28;20085;-61
2021/10/23 05:31:51;;;;;;;16.42;9.25;;;;;;;11.59;72.39;96810.69;5093844;28;20028;-62
2021/10/23 05:34:16;;;;;;;17.20;9.65;;;;;;;11.90;71.25;96809.50;5093893;28;20020;-63
2021/10/23 05:36:42;;;;;;;10.15;7.85;;;;;;;12.22;70.33;96815.25;5093822;28;20032;-61
2021/10/23 05:39:08;;;;;;;8.20;6.95;;;;;;;12.38;70.97;96823.34;5093926;28;20024;-63
2021/10/23 05:59:54;;;;;;;11.68;9.13;;;;;;;19.19;49.56;96858.38;5111031;27;20890;-63
2021/10/23 06:02:24;;;;;;;8.88;7.72;;;;;;;19.80;48.55;96864.81;5110843;28;20035;-65
2021/10/23 06:04:52;;;;;;;8.50;6.95;;;;;;;20.51;46.67;96863.38;5110873;28;20032;-59
2021/10/23 06:07:19;;;;;;;13.65;8.13;;;;;;;21.12;45.40;96863.38;5110626;28;20026;-61
2021/10/23 06:09:45;;;;;;;8.38;7.53;;;;;;;21.58;44.87;96861.63;5110726;28;20026;-61
2021/10/23 06:12:11;;;;;;;11.10;7.32;;;;;;;22.14;43.99;96867.09;5110658;28;20016;-59
2021/10/23 06:14:36;;;;;;;7.97;6.10;;;;;;;22.61;42.95;96872.25;5110616;28;20408;-63
2021/10/23 06:17:04;;;;;;;7.90;6.25;;;;;;;23.00;42.59;96862.88;5110586;28;20074;-61
2021/10/23 06:19:30;;;;;;;7.13;6.43;;;;;;;23.41;42.16;96871.03;5110593;28;20089;-60
2021/10/23 06:21:55;;;;;;;7.43;6.32;;;;;;;23.88;40.63;96875.94;5110666;28;20461;-63
2021/10/23 06:24:21;;;;;;;10.27;6.25;;;;;;;24.20;40.48;96874.09;5110464;28;20115;-63
2021/10/23 06:26:47;;;;;;;7.18;6.25;;;;;;;24.54;39.59;96872.91;5110433;28;20016;-60
2021/10/23 06:29:12;;;;;;;5.95;5.25;;;;;;;24.89;39.06;96873.38;5110190;28;20448;-62
2021/10/23 06:31:38;;;;;;;10.60;5.85;;;;;;;25.61;37.62;96883.72;5110395;28;20032;-64
2021/10/23 06:34:04;;;;;;;8.43;5.75;;;;;;;26.31;35.57;96874.44;5110254;28;20023;-65
2021/10/23 06:36:29;;;;;;;7.55;5.28;;;;;;;26.97;35.43;96876.94;5110234;28;20097;-61
2021/10/23 06:38:55;;;;;;;6.30;5.70;;;;;;;27.60;34.71;96876.94;5110344;28;20020;-63
2021/10/23 06:41:20;;;;;;;5.97;5.38;;;;;;;28.09;33.63;96885.44;5110079;28;20028;-64
2021/10/23 06:43:46;;;;;;;7.70;5.20;;;;;;;28.57;32.19;96885.81;5110043;28;20019;-63
2021/10/23 06:46:12;;;;;;;5.93;5.28;;;;;;;28.84;32.63;96883.81;5109937;28;20072;-65
2021/10/23 06:48:37;;;;;;;7.07;5.43;;;;;;;29.18;32.05;96883.88;5109853;28;20038;-63
2021/10/23 06:51:03;;;;;;;6.43;5.57;;;;;;;29.29;31.61;96878.19;5109862;28;20091;-62
2021/10/23 06:53:29;;;;;;;6.88;5.55;;;;;;;29.51;31.12;96891.94;5110060;28;20024;-61
2021/10/23 06:55:54;;;;;;;9.35;5.63;;;;;;;29.60;30.82;96882.03;5109891;28;20069;-64
2021/10/23 06:58:20;;;;;;;6.18;5.60;;;;;;;29.77;30.69;96883.66;5109491;28;20047;-64
2021/10/23 07:00:45;;;;;;;7.97;5.35;;;;;;;30.33;30.37;96884.69;5096790;28;20020;-63
2021/10/23 07:03:11;;;;;;;5.80;5.30;;;;;;;30.77;29.79;96882.44;5096097;28;20099;-64
2021/10/23 07:05:37;;;;;;;6.13;5.38;;;;;;;30.87;29.77;96874.97;5096060;28;20103;-62
2021/10/23 07:08:03;;;;;;;6.60;5.28;;;;;;;30.89;29.04;96883.72;5095991;28;20051;-63
2021/10/23 07:10:29;;;;;;;7.95;5.68;;;;;;;31.39;27.85;96880.63;5096064;28;20465;-65
2021/10/23 07:12:54;;;;;;;9.73;7.78;;;;;;;31.78;28.29;96883.28;5095846;28;20400;-61
2021/10/23 07:15:20;;;;;;;9.55;6.60;;;;;;;32.07;27.32;96895.19;5095773;28;20039;-59
2021/10/23 07:17:46;;;;;;;6.65;5.68;;;;;;;31.80;28.35;96894.75;5095904;28;20024;-65
2021/10/23 07:20:12;;;;;;;6.70;5.57;;;;;;;32.36;28.45;96892.63;5096052;28;20027;-66
2021/10/23 07:22:38;;;;;;;5.47;4.97;;;;;;;32.82;27.46;96886.09;5095834;28;20039;-65
2021/10/23 07:25:05;;;;;;;5.90;5.38;;;;;;;32.98;27.06;96890.41;5095720;28;20031;-63
2021/10/23 07:27:31;;;;;;;6.90;6.25;;;;;;;32.87;27.49;96894.47;5095654;28;20032;-62
2021/10/23 07:29:57;;;;;;;7.22;6.45;;;;;;;33.05;27.19;96903.22;5095652;28;20025;-62
2021/10/23 07:32:22;;;;;;;6.57;5.90;;;;;;;33.02;27.11;96901.72;5095581;28;20519;-62
2021/10/23 07:34:48;;;;;;;9.40;5.65;;;;;;;32.81;27.14;96907.94;5095570;28;20051;-63
2021/10/23 07:37:15;;;;;;;9.13;6.15;;;;;;;32.57;26.72;96907.28;5095352;28;20028;-62
2021/10/23 07:39:42;;;;;;;8.68;6.07;;;;;;;32.49;26.35;96919.88;5095494;28;20036;-63
2021/10/23 07:42:07;;;;;;;6.97;5.85;;;;;;;32.43;27.01;96923.31;5095345;28;20024;-62
2021/10/23 07:44:33;;;;;;;6.32;4.75;;;;;;;31.87;26.22;96922.72;5095577;28;20027;-63
2021/10/23 07:46:59;;;;;;;6.03;4.70;;;;;;;31.47;26.90;96922.97;5095355;28;20024;-61
2021/10/23 07:49:24;;;;;;;5.03;4.45;;;;;;;31.01;26.31;96924.66;5095141;28;20472;-62
2021/10/23 07:51:50;;;;;;;7.95;5.30;;;;;;;30.47;28.62;96922.72;5095230;28;20031;-59
2021/10/23 07:54:16;;;;;;;5.95;4.63;;;;;;;29.75;29.73;96920.75;5095206;28;20020;-64
2021/10/23 07:56:43;;;;;;;8.30;5.70;;;;;;;29.14;30.64;96921.91;5095039;28;20043;-62
2021/10/23 07:59:10;;;;;;;5.68;5.07;;;;;;;28.32;32.17;96919.88;5094662;28;20044;-62
2021/10/23 08:01:36;;;;;;;8.07;5.22;;;;;;;27.83;32.77;96927.47;5094976;28;20032;-65
2021/10/23 08:04:02;;;;;;;5.90;4.70;;;;;;;27.24;33.48;96926.19;5094871;28;20069;-63
2021/10/23 08:06:28;;;;;;;7.88;4.63;;;;;;;26.72;33.20;96925.00;5094883;28;20082;-65
2021/10/23 08:08:54;;;;;;;5.95;4.78;;;;;;;26.28;35.60;96925.66;5095009;28;20020;-63
2021/10/23 08:11:20;;;;;;;9.75;5.30;;;;;;;25.71;36.73;96931.91;5093814;28;20020;-64
2021/10/23 08:13:45;;;;;;;5.53;5.00;;;;;;;25.15;37.35;96924.50;5094855;28;20020;-62
2021/10/23 08:16:13;;;;;;;5.88;5.38;;;;;;;24.70;39.00;96920.47;5094671;28;20016;-62
2021/10/23 08:18:39;;;;;;;8.93;5.10;;;;;;;24.43;38.72;96919.28;5094635;28;20020;-62
2021/10/23 08:21:05;;;;;;;6.47;5.03;;;;;;;24.34;39.84;96918.28;5094802;28;20020;-62
2021/10/23 08:23:31;;;;;;;5.38;4.85;;;;;;;24.41;38.32;96915.94;5094741;28;20021;-63
2021/10/23 08:25:57;;;;;;;4.80;4.40;;;;;;;24.37;37.57;96904.66;5093217;28;20032;-61
2021/10/23 08:28:23;;;;;;;5.20;4.70;;;;;;;24.17;38.97;96912.59;5094403;28;20020;-60
2021/10/23 08:30:50;;;;;;;6.53;4.47;;;;;;;23.97;36.89;96915.19;5094370;28;20104;-63
2021/10/23 08:33:16;;;;;;;5.00;4.40;;;;;;;23.94;38.90;96909.25;5094423;28;20024;-61
2021/10/23 08:35:42;;;;;;;5.20;4.28;;;;;;;23.83;38.63;96913.72;5094398;28;20363;-62
2021/10/23 08:38:08;;;;;;;5.10;4.05;;;;;;;23.64;39.18;96909.13;5094192;28;20035;-61
2021/10/23 08:40:34;;;;;;;4.35;3.95;;;;;;;23.60;38.53;96910.38;5094137;28;20468;-60
2021/10/23 08:43:00;;;;;;;6.78;4.32;;;;;;;23.62;39.18;96911.06;5094193;28;20035;-65
2021/10/23 08:45:26;;;;;;;4.88;3.58;;;;;;;23.45;38.82;96902.66;5094173;28;20081;-66
2021/10/23 08:47:54;;;;;;;4.30;3.35;;;;;;;23.38;39.66;96912.19;5094088;28;20064;-63
2021/10/23 08:50:22;;;;;;;4.40;4.00;;;;;;;23.20;40.68;96912.72;5093943;28;20111;-62
2021/10/23 08:52:52;;;;;;;5.32;4.50;;;;;;;23.13;40.29;96916.91;5094167;28;20485;-62
2021/10/23 08:55:21;;;;;;;5.18;4.68;;;;;;;23.04;41.34;96921.19;5093961;28;20020;-63
2021/10/23 08:57:47;;;;;;;5.15;4.05;;;;;;;22.95;39.32;96920.13;5093600;28;20083;-62
2021/10/23 09:00:14;;;;;;;5.78;4.43;;;;;;;22.99;41.58;96917.22;5094056;28;20359;-63
2021/10/23 09:02:40;;;;;;;9.88;3.92;;;;;;;22.91;41.21;96915.16;5093928;28;20024;-64
2021/10/23 09:05:06;;;;;;;5.07;3.83;;;;;;;22.83;41.54;96923.78;5093841;28;20027;-59
2021/10/23 09:07:33;;;;;;;8.85;4.45;;;;;;;22.77;42.25;96919.81;5093786;28;20034;-64
2021/10/23 09:10:06;;;;;;;4.30;3.90;;;;;;;22.78;42.04;96928.69;5093710;28;20024;-62
2021/10/23 09:12:35;;;;;;;5.65;4.85;;;;;;;22.74;42.88;96924.53;5093797;28;20031;-62
2021/10/23 09:15:15;;;;;;;5.43;3.88;;;;;;;22.65;42.35;96919.00;5093612;28;20026;-64
2021/10/23 09:17:47;;;;;;;6.60;4.40;;;;;;;22.62;42.58;96916.59;5093611;28;20115;-66
2021/10/23 09:20:15;;;;;;;4.47;4.07;;;;;;;22.61;41.46;96919.38;5093725;28;20071;-63
2021/10/23 09:22:52;;;;;;;4.93;3.50;;;;;;;22.65;40.30;96911.00;5093427;28;20027;-63
2021/10/23 09:25:29;;;;;;;4.80;3.63;;;;;;;22.58;40.55;96912.47;5093527;28;20109;-63
2021/10/23 09:27:54;;;;;;;5.85;5.05;;;;;;;22.66;41.91;96906.53;5093371;28;20469;-65
2021/10/23 09:30:30;;;;;;;4.80;4.30;;;;;;;22.72;41.49;96920.19;5093311;28;20102;-65
2021/10/23 09:32:59;;;;;;;5.57;4.53;;;;;;;22.72;43.11;96903.34;5093447;28;20040;-65
2021/10/23 09:35:25;;;;;;;4.97;4.10;;;;;;;22.61;43.39;96914.91;5093371;28;20160;-59
2021/10/23 09:37:55;;;;;;;4.55;4.15;;;;;;;22.51;43.66;96913.94;5093296;28;20435;-64
2021/10/23 09:40:22;;;;;;;5.20;4.22;;;;;;;22.40;43.17;96912.13;5093363;28;20046;-64
2021/10/23 09:43:07;;;;;;;5.22;4.70;;;;;;;22.38;43.24;96903.41;5093222;28;20030;-63
2021/10/23 09:45:35;;;;;;;5.57;4.95;;;;;;;22.31;44.24;96903.06;5093305;28;20024;-64
2021/10/23 09:48:06;;;;;;;6.93;5.47;;;;;;;22.21;44.91;96910.91;5093309;28;20483;-62
2021/10/23 09:50:32;;;;;;;8.10;5.00;;;;;;;22.13;45.77;96900.91;5093233;28;20441;-65
2021/10/23 09:53:11;;;;;;;9.23;5.47;;;;;;;21.87;44.98;96905.59;5093157;28;20103;-60
2021/10/23 09:55:48;;;;;;;7.18;5.68;;;;;;;21.68;46.75;96912.34;5093155;28;20428;-64
2021/10/23 09:58:24;;;;;;;9.00;5.68;;;;;;;21.66;45.63;96903.63;5092880;28;20056;-61
2021/10/23 10:00:51;;;;;;;8.93;5.38;;;;;;;21.65;46.00;96909.94;5093169;28;20065;-61
2021/10/23 10:03:18;;;;;;;7.85;5.95;;;;;;;21.70;46.89;96911.25;5093074;28;20024;-63
2021/10/23 10:05:44;;;;;;;8.65;5.55;;;;;;;21.89;44.51;96912.53;5093024;28;20020;-64
2021/10/23 10:08:12;;;;;;;5.20;4.70;;;;;;;22.01;45.58;96907.19;5093045;28;20024;-62
2021/10/23 10:10:43;;;;;;;7.70;5.40;;;;;;;22.06;44.79;96911.19;5093041;28;20043;-64
2021/10/23 10:13:13;;;;;;;7.85;4.88;;;;;;;22.13;45.04;96908.91;5092998;28;20052;-64
2021/10/23 10:15:49;;;;;;;10.00;5.70;;;;;;;22.02;45.62;96904.41;5092921;28;20032;-62
2021/10/23 10:18:17;;;;;;;7.15;5.53;;;;;;;22.06;44.60;96905.00;5092814;28;20089;-64
2021/10/23 10:20:48;;;;;;;7.07;5.25;;;;;;;22.05;44.69;96898.84;5092938;28;20020;-59
2021/10/23 10:23:29;;;;;;;8.82;5.30;;;;;;;21.93;45.66;96898.00;5092941;28;20359;-63
2021/10/23 10:26:19;;;;;;;7.53;5.10;;;;;;;21.95;45.17;96901.38;5093038;28;20034;-65
2021/10/23 10:29:07;;;;;;;11.18;7.85;;;;;;;22.05;45.96;96893.53;5092772;28;20036;-63
2021/10/23 10:32:20;;;;;;;7.07;4.95;;;;;;;22.06;44.36;96892.53;5092856;28;20064;-61
2021/10/23 10:43:02;;;;;;;7.13;5.25;;;;;;;21.96;45.25;96894.25;5096678;28;20036;-64
2021/10/23 10:45:51;;;;;;;6.57;5.07;;;;;;;21.93;44.49;96886.50;5096591;28;20020;-62
2021/10/23 10:48:37;;;;;;;5.68;4.95;;;;;;;21.90;45.87;96890.25;5096526;28;20058;-66
2021/10/23 10:51:05;;;;;;;6.38;5.03;;;;;;;21.90;45.89;96897.38;5096392;28;20032;-62
2021/10/23 10:53:43;;;;;;;7.22;4.75;;;;;;;21.96;46.42;96889.78;5096272;28;20024;-61
2021/10/23 10:56:11;;;;;;;5.57;5.00;;;;;;;21.98;44.99;96896.78;5096378;28;20155;-60
2021/10/23 10:59:03;;;;;;;6.03;5.30;;;;;;;22.03;45.48;96895.44;5095751;28;20047;-62
2021/10/23 11:01:32;;;;;;;6.85;4.95;;;;;;;21.96;44.73;96897.75;5096217;28;20031;-66
2021/10/23 11:03:58;;;;;;;5.25;4.75;;;;;;;21.95;44.61;96893.38;5096102;28;20016;-62
2021/10/23 11:06:41;;;;;;;6.03;5.10;;;;;;;21.93;43.71;96890.00;5096079;28;20039;-65
2021/10/23 11:09:16;;;;;;;7.18;5.22;;;;;;;22.03;45.81;96894.63;5096002;28;20024;-61
2021/10/23 11:11:44;;;;;;;6.22;5.20;;;;;;;21.83;45.10;96886.38;5095900;28;20028;-61
2021/10/23 11:14:27;;;;;;;6.88;5.10;;;;;;;21.88;44.59;96889.50;5095925;28;20028;-64
2021/10/23 11:16:53;;;;;;;5.32;4.82;;;;;;;21.98;45.33;96888.78;5096015;28;20470;-64
2021/10/23 11:19:44;;;;;;;8.10;4.80;;;;;;;22.05;44.65;96879.34;5095675;28;20078;-67
2021/10/23 11:22:18;;;;;;;8.13;5.65;;;;;;;21.98;44.40;96892.31;5095799;28;20073;-66
2021/10/23 11:25:00;;;;;;;6.13;4.65;;;;;;;21.96;44.76;96886.25;5095833;28;20112;-65
2021/10/23 11:27:29;;;;;;;5.57;4.70;;;;;;;21.92;45.15;96876.81;5095907;28;20099;-64
2021/10/23 11:30:16;;;;;;;6.00;4.28;;;;;;;22.05;44.01;96879.34;5095704;28;20123;-61
2021/10/23 11:32:56;;;;;;;4.40;4.00;;;;;;;22.09;43.58;96886.13;5095736;28;20385;-64
2021/10/23 11:35:33;;;;;;;;;;;;;;;22.05;44.48;96869.56;5095959;28;20024;-63
2021/10/23 11:38:03;;;;;;;6.35;4.57;;;;;;;21.98;44.06;96872.81;5095502;28;20268;-61
2021/10/23 11:40:30;;;;;;;5.50;5.00;;;;;;;21.94;44.59;96874.88;5095533;28;20051;-61
2021/10/23 11:42:55;;;;;;;7.40;4.70;;;;;;;22.01;44.32;96870.78;5095389;28;20028;-59
2021/10/23 11:45:23;;;;;;;5.18;4.68;;;;;;;21.89;45.14;96885.03;5095210;28;20032;-65
2021/10/23 11:47:51;;;;;;;7.03;4.88;;;;;;;21.92;44.70;96879.47;5095238;28;20063;-65
2021/10/23 11:50:23;;;;;;;5.07;4.55;;;;;;;21.91;45.25;96885.78;5095200;28;20074;-59
2021/10/23 11:52:55;;;;;;;5.40;4.70;;;;;;;21.88;44.99;96886.03;5095463;28;20032;-62
2021/10/23 11:55:39;;;;;;;6.75;4.75;;;;;;;21.85;46.06;96879.09;5095224;28;20048;-65
2021/10/23 11:58:10;;;;;;;5.18;4.68;;;;;;;21.72;46.02;96873.88;5094858;28;20094;-62